createdAt,value
2022-12-18T00:01:52.036Z,102055.53
2022-12-18T00:02:56.478Z,102051.22
2022-12-18T04:07:08.145Z,102370.81
2022-12-18T04:08:14.369Z,102372.53
2022-12-18T04:09:19.377Z,102373.44
2022-12-18T04:10:22.383Z,102320.25
2022-12-18T04:11:25.824Z,102374.22
2022-12-18T04:12:30.927Z,102374.22
2022-12-18T04:13:37.327Z,102369.00
2022-12-18T04:14:41.970Z,102382.72
2022-12-18T04:15:44.876Z,102386.16
2022-12-18T04:16:49.827Z,102388.66
2022-12-18T04:17:52.892Z,102392.16
2022-12-18T04:18:56.494Z,102398.88
2022-12-18T04:19:59.853Z,102389.44
2022-12-18T04:21:03.653Z,102390.31
2022-12-18T04:22:06.666Z,102388.56
2022-12-18T04:23:10.332Z,102391.91
2022-12-18T04:24:13.587Z,102394.50
2022-12-18T04:25:17.483Z,102394.53
2022-12-18T04:26:23.156Z,102399.72
2022-12-18T04:27:26.515Z,102391.84
2022-12-18T04:28:29.748Z,102405.75
2022-12-18T04:29:33.516Z,102408.31
2022-12-18T04:30:37.527Z,102402.16
2022-12-18T04:31:40.964Z,102404.97
2022-12-18T04:32:47.738Z,102408.25
2022-12-18T04:33:53.779Z,102402.22
2022-12-18T04:34:57.023Z,102409.94
2022-12-18T04:36:00.163Z,102411.66
2022-12-18T04:37:03.872Z,102415.97
2022-12-18T04:38:09.420Z,102412.53
2022-12-18T04:39:13.480Z,102414.31
2022-12-18T04:40:21.335Z,102415.16
2022-12-18T04:41:24.546Z,102417.72
2022-12-18T04:42:27.999Z,102418.59
2022-12-18T04:43:31.275Z,102426.34
2022-12-18T04:44:33.950Z,102424.59
2022-12-18T04:45:36.926Z,102421.09
2022-12-18T04:46:40.282Z,102427.97
2022-12-18T04:47:43.097Z,102427.97
2022-12-18T04:48:47.975Z,102437.38
2022-12-18T04:49:51.234Z,102433.87
2022-12-18T04:50:54.479Z,102430.44
2022-12-18T04:51:57.356Z,102429.50
2022-12-18T04:53:00.135Z,102429.44
2022-12-18T04:54:03.279Z,102425.16
2022-12-18T04:55:06.407Z,102432.00
2022-12-18T04:56:12.065Z,102429.38
2022-12-18T04:57:15.212Z,102443.94
2022-12-18T04:58:18.086Z,102437.06
2022-12-18T04:59:21.033Z,102449.00
2022-12-18T05:00:24.870Z,102445.53
2022-12-18T05:01:34.094Z,102448.09
2022-12-18T05:02:37.579Z,102445.44
2022-12-18T05:03:41.685Z,102446.25
2022-12-18T05:04:45.086Z,102451.31
2022-12-18T05:05:51.787Z,102454.81
2022-12-18T05:06:54.931Z,102463.44
2022-12-18T05:07:57.898Z,102462.59
2022-12-18T05:09:01.345Z,102471.25
2022-12-18T05:10:04.642Z,102461.75
2022-12-18T05:11:12.586Z,102464.31
2022-12-18T05:12:15.552Z,102468.62
2022-12-18T05:13:18.231Z,102471.97
2022-12-18T05:14:21.377Z,102471.19
2022-12-18T05:15:24.117Z,102472.03
2022-12-18T05:16:26.785Z,102472.91
2022-12-18T05:17:29.990Z,102475.50
2022-12-18T05:18:32.954Z,102477.19
2022-12-18T05:19:35.973Z,102478.88
2022-12-18T05:20:38.575Z,102476.34
2022-12-18T05:21:41.583Z,102484.09
2022-12-18T05:22:44.557Z,102488.44
2022-12-18T05:23:47.271Z,102493.56
2022-12-18T05:24:50.287Z,102493.66
2022-12-18T05:26:01.416Z,102495.28
2022-12-18T05:27:04.459Z,102496.22
2022-12-18T05:28:08.162Z,102497.87
2022-12-18T05:29:13.324Z,102492.72
2022-12-18T05:30:17.570Z,102496.12
2022-12-18T05:31:20.702Z,102493.47
2022-12-18T05:32:23.598Z,102493.47
2022-12-18T05:33:29.824Z,102496.91
2022-12-18T05:34:32.462Z,102501.22
2022-12-18T05:35:35.322Z,102445.41
2022-12-18T05:36:37.948Z,102502.84
2022-12-18T05:37:43.243Z,102491.66
2022-12-18T05:38:47.123Z,102509.59
2022-12-18T05:39:49.781Z,102505.31
2022-12-18T05:40:53.742Z,102513.88
2022-12-18T05:41:56.598Z,102512.91
2022-12-18T05:42:59.301Z,102517.28
2022-12-18T05:44:02.862Z,102516.97
2022-12-18T05:45:06.629Z,102519.47
2022-12-18T05:46:13.997Z,102527.09
2022-12-18T05:47:16.801Z,102520.22
2022-12-18T05:48:20.705Z,102524.56
2022-12-18T05:49:23.850Z,102515.16
2022-12-18T05:50:26.464Z,102527.09
2022-12-18T05:51:29.351Z,102526.19
2022-12-18T05:52:32.153Z,102532.97
2022-12-18T05:53:36.031Z,102526.13
2022-12-18T05:54:39.054Z,102529.56
2022-12-18T05:55:43.798Z,102530.47
2022-12-18T05:56:48.744Z,102537.44
2022-12-18T05:57:51.702Z,102535.72
2022-12-18T05:58:55.676Z,102534.09
2022-12-18T05:59:58.836Z,102529.84
2022-12-18T06:01:13.776Z,102541.75
2022-12-18T06:02:16.915Z,102540.00
2022-12-18T06:03:20.238Z,102539.13
2022-12-18T06:04:24.203Z,102542.56
2022-12-18T06:05:26.968Z,102551.94
2022-12-18T06:06:30.156Z,102543.41
2022-12-18T06:07:33.369Z,102549.34
2022-12-18T06:08:36.135Z,102551.13
2022-12-18T06:09:39.228Z,102547.63
2022-12-18T06:10:42.560Z,102556.97
2022-12-18T06:11:45.189Z,102556.13
2022-12-18T06:12:48.189Z,102566.50
2022-12-18T06:13:57.833Z,102564.75
2022-12-18T06:15:01.637Z,102560.31
2022-12-18T06:16:09.248Z,102559.63
2022-12-18T06:17:12.977Z,102570.88
2022-12-18T06:18:16.048Z,102570.84
2022-12-18T06:19:18.812Z,102576.00
2022-12-18T06:20:21.840Z,102501.91
2022-12-18T06:21:24.964Z,102582.00
2022-12-18T06:22:28.639Z,102565.66
2022-12-18T06:23:32.180Z,102573.38
2022-12-18T06:24:35.283Z,102581.06
2022-12-18T06:25:39.703Z,102567.25
2022-12-18T06:26:42.671Z,102573.28
2022-12-18T06:27:45.312Z,102574.28
2022-12-18T06:28:48.754Z,102577.78
2022-12-18T06:29:51.744Z,102583.84
2022-12-18T06:30:55.580Z,102582.06
2022-12-18T06:31:58.223Z,102583.84
2022-12-18T06:33:01.025Z,102582.09
2022-12-18T06:34:05.879Z,102577.72
2022-12-18T06:35:09.724Z,102590.75
2022-12-18T06:36:14.342Z,102583.94
2022-12-18T06:37:17.111Z,102585.72
2022-12-18T06:38:19.840Z,102584.16
2022-12-18T06:39:23.137Z,102585.87
2022-12-18T06:40:25.937Z,102587.62
2022-12-18T06:41:28.749Z,102585.13
2022-12-18T06:42:31.357Z,102586.09
2022-12-18T06:43:34.014Z,102582.66
2022-12-18T06:44:37.411Z,102579.88
2022-12-18T06:45:40.322Z,102587.84
2022-12-18T06:46:43.040Z,102581.09
2022-12-18T06:47:45.953Z,102593.13
2022-12-18T06:48:50.481Z,102589.75
2022-12-18T06:49:53.415Z,102596.72
2022-12-18T06:50:56.496Z,102594.97
2022-12-18T06:51:59.179Z,102599.22
2022-12-18T06:53:01.981Z,102604.50
2022-12-18T06:54:05.832Z,102601.06
2022-12-18T06:55:10.391Z,102602.69
2022-12-18T06:56:13.304Z,102606.91
2022-12-18T06:57:16.264Z,102610.44
2022-12-18T06:58:19.505Z,102609.72
2022-12-18T06:59:22.249Z,102606.31
2022-12-18T07:00:25.177Z,102605.44
2022-12-18T07:01:28.569Z,102607.25
2022-12-18T07:02:31.685Z,102611.47
2022-12-18T07:03:34.515Z,102620.03
2022-12-18T07:04:37.667Z,102616.50
2022-12-18T07:05:42.018Z,102616.69
2022-12-18T07:06:44.722Z,102619.28
2022-12-18T07:07:47.731Z,102620.81
2022-12-18T07:08:51.689Z,102625.09
2022-12-18T07:09:54.528Z,102633.59
2022-12-18T07:10:58.077Z,102638.03
2022-12-18T07:12:00.735Z,102637.28
2022-12-18T07:13:03.382Z,102644.03
2022-12-18T07:14:05.971Z,102640.59
2022-12-18T07:15:09.054Z,102641.50
2022-12-18T07:16:19.691Z,102649.12
2022-12-18T07:17:25.194Z,102653.41
2022-12-18T07:18:28.261Z,102653.50
2022-12-18T07:19:31.328Z,102656.25
2022-12-18T07:20:35.409Z,102653.72
2022-12-18T07:21:38.385Z,102657.97
2022-12-18T07:22:41.547Z,102666.53
2022-12-18T07:23:44.816Z,102667.28
2022-12-18T07:24:47.568Z,102661.28
2022-12-18T07:25:50.635Z,102663.78
2022-12-18T07:26:54.322Z,102661.97
2022-12-18T07:27:57.062Z,102663.78
2022-12-18T07:29:00.225Z,102668.84
2022-12-18T07:30:04.092Z,102672.38
2022-12-18T07:31:09.528Z,102669.69
2022-12-18T07:32:12.794Z,102669.66
2022-12-18T07:33:16.713Z,102685.00
2022-12-18T07:34:19.376Z,102677.97
2022-12-18T07:35:24.916Z,102679.72
2022-12-18T07:36:28.127Z,102680.47
2022-12-18T07:37:31.100Z,102688.47
2022-12-18T07:38:35.479Z,102688.63
2022-12-18T07:39:38.309Z,102696.47
2022-12-18T07:40:41.249Z,102699.25
2022-12-18T07:41:47.662Z,102696.88
2022-12-18T07:42:52.325Z,102697.16
2022-12-18T07:43:55.454Z,102698.03
2022-12-18T07:44:59.329Z,102699.84
2022-12-18T07:46:03.112Z,102706.06
2022-12-18T07:47:10.467Z,102692.28
2022-12-18T07:48:15.299Z,102691.41
2022-12-18T07:49:18.290Z,102694.84
2022-12-18T07:50:21.250Z,102700.19
2022-12-18T07:51:24.217Z,102700.97
2022-12-18T07:52:27.058Z,102701.00
2022-12-18T07:53:31.362Z,102702.75
2022-12-18T07:54:34.030Z,102701.84
2022-12-18T07:55:59.701Z,102704.50
2022-12-18T07:57:00.818Z,102704.31
2022-12-18T07:58:05.222Z,102694.59
2022-12-18T07:59:08.213Z,102710.16
2022-12-18T08:00:11.718Z,102712.41
2022-12-18T08:01:14.899Z,102701.22
2022-12-18T08:02:18.395Z,102705.50
2022-12-18T08:03:22.062Z,102703.00
2022-12-18T08:04:26.386Z,102708.16
2022-12-18T08:05:29.325Z,102704.78
2022-12-18T08:06:32.514Z,102700.34
2022-12-18T08:07:42.069Z,102709.94
2022-12-18T08:08:44.804Z,102712.34
2022-12-18T08:09:47.510Z,102714.25
2022-12-18T08:10:50.645Z,102709.22
2022-12-18T08:11:53.368Z,102711.00
2022-12-18T08:13:01.434Z,102712.53
2022-12-18T08:14:07.228Z,102714.59
2022-12-18T08:15:10.203Z,102720.53
2022-12-18T08:16:13.338Z,102725.59
2022-12-18T08:17:21.286Z,102725.84
2022-12-18T08:18:25.261Z,102725.00
2022-12-18T08:19:27.987Z,102723.19
2022-12-18T08:20:30.684Z,102728.50
2022-12-18T08:21:33.485Z,102725.78
2022-12-18T08:22:40.047Z,102728.50
2022-12-18T08:23:43.913Z,102725.69
2022-12-18T08:24:46.753Z,102734.53
2022-12-18T08:25:49.632Z,102735.22
2022-12-18T08:27:20.868Z,102729.41
2022-12-18T08:28:15.321Z,102735.37
2022-12-18T08:29:21.710Z,102733.75
2022-12-18T08:30:24.890Z,102735.37
2022-12-18T08:31:29.397Z,102741.50
2022-12-18T08:32:33.907Z,102740.59
2022-12-18T08:33:38.849Z,102745.66
2022-12-18T08:34:42.164Z,102744.06
2022-12-18T08:35:46.178Z,102747.66
2022-12-18T08:36:49.694Z,102750.28
2022-12-18T08:37:52.369Z,102745.97
2022-12-18T08:38:55.515Z,102733.06
2022-12-18T08:39:58.492Z,102744.50
2022-12-18T08:41:02.297Z,102753.31
2022-12-18T08:42:23.527Z,102745.59
2022-12-18T08:43:44.872Z,102753.16
2022-12-18T08:44:47.602Z,102750.28
2022-12-18T08:45:51.060Z,102750.41
2022-12-18T08:46:53.783Z,102757.22
2022-12-18T08:47:56.878Z,102751.28
2022-12-18T08:48:59.974Z,102756.34
2022-12-18T08:50:03.439Z,102753.16
2022-12-18T08:51:06.659Z,102754.78
2022-12-18T08:52:10.546Z,102758.22
2022-12-18T08:53:13.157Z,102764.25
2022-12-18T08:54:15.978Z,102757.41
2022-12-18T08:55:19.191Z,102756.59
2022-12-18T08:56:23.755Z,102756.44
2022-12-18T08:57:26.579Z,102760.03
2022-12-18T08:58:30.715Z,102760.97
2022-12-18T08:59:33.718Z,102761.09
2022-12-18T09:00:36.670Z,102759.44
2022-12-18T09:01:39.938Z,102769.03
2022-12-18T09:02:42.725Z,102769.03
2022-12-18T09:03:45.807Z,102758.84
2022-12-18T09:04:53.789Z,102761.31
2022-12-18T09:06:00.567Z,102758.31
2022-12-18T09:07:03.758Z,102766.03
2022-12-18T09:08:06.880Z,102765.37
2022-12-18T09:09:10.871Z,102773.94
2022-12-18T09:10:13.543Z,102766.22
2022-12-18T09:11:21.822Z,102765.22
2022-12-18T09:12:25.129Z,102769.69
2022-12-18T09:13:27.962Z,102769.03
2022-12-18T09:14:30.726Z,102770.88
2022-12-18T09:15:33.401Z,102770.97
2022-12-18T09:16:36.862Z,102773.41
2022-12-18T09:17:40.370Z,102774.47
2022-12-18T09:18:43.488Z,102772.87
2022-12-18T09:19:46.952Z,102778.25
2022-12-18T09:20:51.295Z,102777.59
2022-12-18T09:21:54.131Z,102784.69
2022-12-18T09:22:57.580Z,102783.97
2022-12-18T09:24:00.474Z,102783.03
2022-12-18T09:25:03.366Z,102788.97
2022-12-18T09:26:06.258Z,102782.03
2022-12-18T09:27:09.221Z,102787.97
2022-12-18T09:28:17.681Z,102799.97
2022-12-18T09:29:20.341Z,102795.84
2022-12-18T09:30:23.442Z,102797.47
2022-12-18T09:31:26.575Z,102794.94
2022-12-18T09:32:29.211Z,102794.03
2022-12-18T09:33:32.999Z,102795.78
2022-12-18T09:34:35.754Z,102789.69
2022-12-18T09:35:38.869Z,102802.81
2022-12-18T09:36:41.485Z,102799.37
2022-12-18T09:37:44.505Z,102801.31
2022-12-18T09:38:47.682Z,102796.09
2022-12-18T09:39:50.349Z,102796.94
2022-12-18T09:40:57.864Z,102799.53
2022-12-18T09:42:00.656Z,102796.09
2022-12-18T09:43:07.404Z,102792.75
2022-12-18T09:44:17.376Z,102790.88
2022-12-18T09:45:21.030Z,102797.84
2022-12-18T09:46:30.266Z,102804.00
2022-12-18T09:47:38.802Z,102805.19
2022-12-18T09:48:47.335Z,102795.81
2022-12-18T09:49:55.116Z,102803.78
2022-12-18T09:51:03.639Z,102806.84
2022-12-18T09:52:15.701Z,102803.13
2022-12-18T09:53:27.952Z,102805.63
2022-12-18T09:54:42.926Z,102804.38
2022-12-18T09:55:48.111Z,102809.59
2022-12-18T09:56:51.190Z,102805.50
2022-12-18T09:58:01.316Z,102804.62
2022-12-18T09:59:05.611Z,102803.44
2022-12-18T10:00:11.727Z,102815.47
2022-12-18T10:01:22.934Z,102810.88
2022-12-18T10:02:27.942Z,102813.75
2022-12-18T10:03:31.018Z,102812.16
2022-12-18T10:04:33.895Z,102810.38
2022-12-18T10:05:56.407Z,102808.78
2022-12-18T10:07:10.699Z,102809.19
2022-12-18T10:08:17.007Z,102803.44
2022-12-18T10:09:32.019Z,102800.81
2022-12-18T10:10:47.252Z,102804.56
2022-12-18T10:11:54.345Z,102800.88
2022-12-18T10:13:07.023Z,102799.06
2022-12-18T10:14:36.840Z,102800.44
2022-12-18T10:16:11.806Z,102791.88
2022-12-18T10:17:20.377Z,102790.81
2022-12-18T10:18:40.188Z,102791.81
2022-12-18T10:19:57.729Z,102790.75
2022-12-18T10:21:17.696Z,102791.06
2022-12-18T10:22:25.653Z,102795.19
2022-12-18T10:23:34.516Z,102791.69
2022-12-18T10:24:55.550Z,102793.53
2022-12-18T10:26:11.518Z,102793.00
2022-12-18T10:27:22.658Z,102781.94
2022-12-18T10:28:27.504Z,102799.94
2022-12-18T10:29:30.344Z,102794.41
2022-12-18T10:30:33.050Z,102798.56
2022-12-18T10:31:36.828Z,102786.94
2022-12-18T10:32:40.386Z,102795.97
2022-12-18T10:33:43.340Z,102796.31
2022-12-18T10:34:55.359Z,102798.25
2022-12-18T10:36:02.751Z,102797.81
2022-12-18T10:37:14.401Z,102793.88
2022-12-18T10:38:17.298Z,102799.00
2022-12-18T10:39:23.940Z,102792.66
2022-12-18T10:40:26.610Z,102789.84
2022-12-18T10:41:29.662Z,102798.28
2022-12-18T10:42:33.097Z,102792.94
2022-12-18T10:43:38.047Z,102796.00
2022-12-18T10:44:40.744Z,102802.87
2022-12-18T10:46:09.359Z,102799.41
2022-12-18T10:47:20.448Z,102798.34
2022-12-18T10:48:24.366Z,102800.16
2022-12-18T10:49:30.804Z,102780.94
2022-12-18T10:51:09.152Z,102798.12
2022-12-18T10:52:25.831Z,102803.28
2022-12-18T10:53:30.820Z,102798.22
2022-12-18T10:54:36.103Z,102806.81
2022-12-18T10:55:41.131Z,102804.28
2022-12-18T10:56:44.977Z,102806.00
2022-12-18T10:57:49.512Z,102810.19
2022-12-18T10:59:07.755Z,102805.09
2022-12-18T11:00:30.542Z,102811.91
2022-12-18T11:01:48.585Z,102808.44
2022-12-18T11:02:53.985Z,102811.97
2022-12-18T11:04:09.145Z,102795.56
2022-12-18T11:05:37.955Z,102803.56
2022-12-18T11:06:58.279Z,102804.28
2022-12-18T11:08:02.167Z,102798.28
2022-12-18T11:09:13.252Z,102802.63
2022-12-18T11:10:20.118Z,102808.50
2022-12-18T11:11:24.444Z,102802.63
2022-12-18T11:12:30.239Z,102801.00
2022-12-18T11:13:33.131Z,102785.28
2022-12-18T11:14:46.879Z,102800.13
2022-12-18T11:15:51.157Z,102800.00
2022-12-18T11:17:25.294Z,102793.13
2022-12-18T11:18:21.679Z,102800.78
2022-12-18T11:19:40.789Z,102784.09
2022-12-18T11:20:58.173Z,102798.78
2022-12-18T11:22:04.698Z,102796.34
2022-12-18T11:23:14.759Z,102794.84
2022-12-18T11:24:37.875Z,102794.06
2022-12-18T11:25:51.801Z,102797.62
2022-12-18T11:26:59.705Z,102791.12
2022-12-18T11:28:27.063Z,102794.81
2022-12-18T11:29:44.826Z,102790.66
2022-12-18T11:30:49.290Z,102788.31
2022-12-18T11:31:52.404Z,102792.91
2022-12-18T11:32:59.742Z,102793.88
2022-12-18T11:35:54.800Z,102787.13
2022-12-18T11:37:00.208Z,102777.03
2022-12-18T11:38:22.173Z,102782.75
2022-12-18T11:39:40.494Z,102780.69
2022-12-18T11:40:48.722Z,102776.88
2022-12-18T11:42:10.429Z,102758.44
2022-12-18T11:43:25.556Z,102765.25
2022-12-18T11:44:36.980Z,102765.03
2022-12-18T11:45:52.126Z,102764.69
2022-12-18T11:47:03.560Z,102757.50
2022-12-18T11:48:25.822Z,102772.97
2022-12-18T11:49:40.257Z,102775.31
2022-12-18T11:50:52.401Z,102776.06
2022-12-18T11:52:04.041Z,102769.25
2022-12-18T11:53:11.704Z,102757.66
2022-12-18T11:54:17.257Z,102766.47
2022-12-18T11:55:36.944Z,102761.87
2022-12-18T11:56:53.793Z,102761.84
2022-12-18T11:58:31.135Z,102773.03
2022-12-18T11:59:40.902Z,102774.88
2022-12-18T12:01:11.847Z,102768.97
2022-12-18T12:02:42.804Z,102770.69
2022-12-18T12:03:57.735Z,102767.12
2022-12-18T12:05:19.323Z,102764.88
2022-12-18T12:06:22.508Z,102756.31
2022-12-18T12:07:59.940Z,102761.56
2022-12-18T12:09:24.126Z,102766.59
2022-12-18T12:11:00.534Z,102760.62
2022-12-18T12:15:13.655Z,102752.81
2022-12-18T12:16:26.085Z,102752.91
2022-12-18T12:17:46.459Z,102756.31
2022-12-18T12:19:25.081Z,102761.50
2022-12-18T12:20:52.195Z,102759.56
2022-12-18T12:22:19.693Z,102762.09
2022-12-18T12:23:28.180Z,102755.22
2022-12-18T12:24:56.823Z,102752.69
2022-12-18T12:26:49.402Z,102756.09
2022-12-18T12:28:04.371Z,102761.91
2022-12-18T12:29:45.204Z,102771.50
2022-12-18T12:32:18.005Z,102767.94
2022-12-18T12:33:38.983Z,102762.81
2022-12-18T12:35:17.894Z,102770.62
2022-12-18T12:37:56.162Z,102769.56
2022-12-18T12:39:06.653Z,102778.97
2022-12-18T12:40:49.137Z,102776.25
2022-12-18T12:41:59.802Z,102774.75
2022-12-18T12:44:56.275Z,102776.31
2022-12-18T12:46:15.358Z,102766.50
2022-12-18T12:47:24.175Z,102778.59
2022-12-18T12:48:45.231Z,102787.09
2022-12-18T12:49:50.875Z,102783.75
2022-12-18T12:50:56.498Z,102780.19
2022-12-18T12:52:09.290Z,102788.16
2022-12-18T12:53:34.241Z,102789.78
2022-12-18T12:54:38.182Z,102785.34
2022-12-18T12:55:43.759Z,102778.56
2022-12-18T12:57:20.475Z,102796.75
2022-12-18T12:58:49.150Z,102786.56
2022-12-18T13:00:21.512Z,102794.38
2022-12-18T13:02:15.427Z,102798.75
2022-12-18T13:06:04.447Z,102797.91
2022-12-18T13:07:20.697Z,102802.06
2022-12-18T13:08:34.702Z,102808.94
2022-12-18T13:10:35.925Z,102809.75
2022-12-18T13:15:39.309Z,102816.91
2022-12-18T13:16:43.108Z,102816.81
2022-12-18T13:17:47.043Z,102812.53
2022-12-18T13:19:03.911Z,102811.59
2022-12-18T13:20:17.079Z,102820.13
2022-12-18T13:21:30.854Z,102813.16
2022-12-18T13:22:44.170Z,102818.41
2022-12-18T13:23:46.973Z,102813.97
2022-12-18T13:24:50.538Z,102817.47
2022-12-18T13:26:11.305Z,102821.94
2022-12-18T13:27:45.411Z,102829.66
2022-12-18T13:28:48.687Z,102825.28
2022-12-18T13:29:52.897Z,102832.25
2022-12-18T13:30:57.728Z,102831.38
2022-12-18T13:32:02.017Z,102828.72
2022-12-18T13:33:25.741Z,102825.12
2022-12-18T13:34:32.678Z,102833.72
2022-12-18T13:35:40.842Z,102836.28
2022-12-18T13:36:44.036Z,102835.31
2022-12-18T13:37:54.240Z,102834.50
2022-12-18T13:41:14.574Z,102843.03
2022-12-18T13:43:13.245Z,102836.94
2022-12-18T13:44:41.900Z,102845.59
2022-12-18T13:45:51.528Z,102853.37
2022-12-18T13:47:26.210Z,102851.62
2022-12-18T13:49:08.513Z,102859.44
2022-12-18T13:53:17.390Z,102864.41
2022-12-18T13:54:22.256Z,102867.75
2022-12-18T13:58:12.984Z,102865.06
2022-12-18T14:03:46.925Z,102883.06
2022-12-18T14:04:52.188Z,102878.22
2022-12-18T14:08:17.529Z,102881.91
2022-12-18T14:13:33.226Z,102881.97
2022-12-18T14:14:36.258Z,102884.25
2022-12-18T14:18:33.498Z,102892.91
2022-12-18T14:19:37.098Z,102896.12
2022-12-18T14:20:46.505Z,102894.22
2022-12-18T14:22:30.355Z,102892.97
2022-12-18T14:28:16.588Z,102894.50
2022-12-18T14:32:05.831Z,102891.59
2022-12-18T14:38:24.339Z,102891.41
2022-12-18T14:39:27.286Z,102894.03
2022-12-18T14:43:00.359Z,102903.28
2022-12-18T14:44:08.300Z,102911.00
2022-12-18T14:47:44.894Z,102911.06
2022-12-18T14:48:49.025Z,102905.81
2022-12-18T14:49:51.709Z,102918.81
2022-12-18T14:51:11.402Z,102909.19
2022-12-18T14:52:34.276Z,102915.16
2022-12-18T14:54:15.421Z,102911.78
2022-12-18T14:55:23.858Z,102907.53
2022-12-18T14:56:45.613Z,102907.53
2022-12-18T14:57:55.436Z,102916.12
2022-12-18T15:01:36.321Z,102922.94
2022-12-18T15:02:40.980Z,102910.22
2022-12-18T15:03:46.523Z,102913.69
2022-12-18T15:05:11.307Z,102919.66
2022-12-18T15:06:18.691Z,102911.94
2022-12-18T15:07:28.505Z,102914.50
2022-12-18T15:08:38.089Z,102924.00
2022-12-18T15:09:53.505Z,102926.66
2022-12-18T15:10:58.309Z,102927.47
2022-12-18T15:12:03.682Z,102924.03
2022-12-18T15:13:07.466Z,102917.09
2022-12-18T15:14:33.111Z,102932.66
2022-12-18T15:15:43.953Z,102925.78
2022-12-18T15:16:53.029Z,102925.75
2022-12-18T15:18:03.677Z,102930.84
2022-12-18T15:19:09.858Z,102931.72
2022-12-18T15:20:15.472Z,102934.28
2022-12-18T15:21:21.854Z,102937.78
2022-12-18T15:22:34.929Z,102939.44
2022-12-18T15:23:38.888Z,102944.59
2022-12-18T15:24:45.209Z,102940.38
2022-12-18T15:26:16.900Z,102945.63
2022-12-18T15:27:39.486Z,102945.69
2022-12-18T15:29:08.243Z,102949.16
2022-12-18T15:30:31.316Z,102943.91
2022-12-18T15:31:36.828Z,102943.84
2022-12-18T15:32:41.585Z,102943.81
2022-12-18T15:33:47.414Z,102942.13
2022-12-18T15:34:51.270Z,102942.03
2022-12-18T15:36:03.992Z,102941.16
2022-12-18T15:37:09.645Z,102953.16
2022-12-18T15:38:13.709Z,102953.94
2022-12-18T15:39:18.074Z,102951.34
2022-12-18T15:40:25.355Z,102953.94
2022-12-18T15:41:29.300Z,102958.31
2022-12-18T15:42:51.797Z,102950.59
2022-12-18T15:43:55.739Z,102903.28
2022-12-18T15:44:59.831Z,102954.88
2022-12-18T15:46:08.332Z,102960.81
2022-12-18T15:47:14.990Z,102953.97
2022-12-18T15:48:23.219Z,102954.91
2022-12-18T15:49:27.272Z,102960.91
2022-12-18T15:50:31.009Z,102966.94
2022-12-18T15:51:39.817Z,102963.56
2022-12-18T15:52:47.080Z,102966.91
2022-12-18T15:53:56.604Z,102966.94
2022-12-18T15:55:18.925Z,102972.00
2022-12-18T15:56:42.127Z,102966.03
2022-12-18T15:57:47.391Z,102969.53
2022-12-18T15:58:53.527Z,102970.47
2022-12-18T15:59:59.649Z,102968.75
2022-12-18T16:01:03.585Z,102974.75
2022-12-18T16:02:20.836Z,102970.38
2022-12-18T16:03:24.666Z,102971.22
2022-12-18T16:04:38.580Z,102971.22
2022-12-18T16:05:43.870Z,102959.88
2022-12-18T16:08:12.348Z,102970.97
2022-12-18T16:09:15.749Z,102973.62
2022-12-18T16:10:19.638Z,102975.34
2022-12-18T16:12:04.423Z,102974.47
2022-12-18T16:13:16.973Z,102976.09
2022-12-18T16:14:25.284Z,102985.56
2022-12-18T16:15:29.265Z,102981.00
2022-12-18T16:16:35.066Z,102979.31
2022-12-18T16:17:40.181Z,102983.47
2022-12-18T16:18:44.557Z,102981.75
2022-12-18T16:19:49.447Z,102983.47
2022-12-18T16:20:53.776Z,102986.81
2022-12-18T16:21:59.462Z,102990.34
2022-12-18T16:23:04.036Z,102992.13
2022-12-18T16:24:19.667Z,102992.13
2022-12-18T16:25:27.759Z,102994.56
2022-12-18T16:26:32.013Z,102993.59
2022-12-18T16:27:36.141Z,102991.78
2022-12-18T16:28:45.239Z,102997.78
2022-12-18T16:29:52.259Z,102996.91
2022-12-18T16:30:59.330Z,102999.41
2022-12-18T16:32:05.968Z,102956.50
2022-12-18T16:33:12.328Z,103003.56
2022-12-18T16:34:29.927Z,103001.88
2022-12-18T16:35:33.752Z,102994.88
2022-12-18T16:36:37.631Z,102998.31
2022-12-18T16:37:42.976Z,102998.31
2022-12-18T16:38:48.305Z,102999.22
2022-12-18T16:39:51.368Z,103001.03
2022-12-18T16:41:15.455Z,103001.88
2022-12-18T16:42:21.538Z,103003.56
2022-12-18T16:43:25.971Z,103000.13
2022-12-18T16:44:29.489Z,103003.50
2022-12-18T16:45:34.399Z,103007.78
2022-12-18T16:46:38.993Z,103007.75
2022-12-18T16:47:43.563Z,103006.81
2022-12-18T16:48:47.069Z,102999.75
2022-12-18T16:49:53.744Z,103022.28
2022-12-18T16:51:04.498Z,103022.31
2022-12-18T16:52:11.703Z,103020.50
2022-12-18T16:53:18.391Z,103020.38
2022-12-18T16:54:22.726Z,103031.59
2022-12-18T16:55:27.727Z,103027.22
2022-12-18T16:56:32.455Z,103025.34
2022-12-18T16:57:36.678Z,103027.06
2022-12-18T16:58:41.221Z,103031.31
2022-12-18T16:59:47.601Z,103027.81
2022-12-18T17:00:52.563Z,103035.63
2022-12-18T17:01:57.862Z,103039.78
2022-12-18T17:03:03.607Z,103037.16
2022-12-18T17:04:09.098Z,103032.75
2022-12-18T17:05:12.970Z,103030.94
2022-12-18T17:06:16.619Z,103035.22
2022-12-18T17:07:21.366Z,103041.25
2022-12-18T17:08:25.888Z,103033.53
2022-12-18T17:09:30.759Z,103039.69
2022-12-18T17:10:36.527Z,103029.22
2022-12-18T17:11:42.017Z,103029.94
2022-12-18T17:12:46.429Z,103037.78
2022-12-18T17:13:51.326Z,103032.56
2022-12-18T17:14:55.358Z,103044.06
2022-12-18T17:16:11.473Z,103045.72
2022-12-18T17:17:23.596Z,103041.38
2022-12-18T17:18:28.344Z,103044.72
2022-12-18T17:19:31.418Z,103044.78
2022-12-18T17:20:35.212Z,103043.06
2022-12-18T17:21:39.000Z,103045.62
2022-12-18T17:22:44.656Z,103046.38
2022-12-18T17:23:56.290Z,103043.06
2022-12-18T17:25:00.231Z,103050.84
2022-12-18T17:26:07.875Z,103043.03
2022-12-18T17:27:13.730Z,103041.16
2022-12-18T17:28:17.368Z,103034.22
2022-12-18T17:29:23.310Z,103035.09
2022-12-18T17:30:30.336Z,103041.00
2022-12-18T17:31:34.580Z,103047.09
2022-12-18T17:32:38.464Z,103043.41
2022-12-18T17:33:42.911Z,103039.09
2022-12-18T17:34:47.471Z,103041.44
2022-12-18T17:35:51.752Z,103049.28
2022-12-18T17:36:55.806Z,103051.13
2022-12-18T17:38:00.179Z,103048.41
2022-12-18T17:39:06.880Z,103050.00
2022-12-18T17:40:11.121Z,103057.66
2022-12-18T17:41:37.037Z,103054.94
2022-12-18T17:43:21.442Z,103061.00
2022-12-18T17:46:42.327Z,103063.41
2022-12-18T17:47:51.018Z,103072.12
2022-12-18T17:49:00.287Z,103074.59
2022-12-18T17:50:05.463Z,103076.34
2022-12-18T17:51:11.543Z,103079.75
2022-12-18T17:52:15.251Z,103076.28
2022-12-18T17:53:22.178Z,103083.91
2022-12-18T17:54:26.358Z,103083.78
2022-12-18T17:55:30.221Z,103087.13
2022-12-18T17:56:42.018Z,103080.16
2022-12-18T17:57:45.926Z,103083.38
2022-12-18T17:58:51.639Z,103075.56
2022-12-18T17:59:55.335Z,103076.16
2022-12-18T18:01:01.488Z,103090.66
2022-12-18T18:02:05.700Z,103087.13